Time;durP1;ratioP1;P1;durP2;ratioP2;P2;SDS_P1;SDS_P2;PMS_P1;PMS_P2;Temp;Humidity;BMP_temperature;BMP_pressure;BME280_temperature;BME280_humidity;BME280_pressure;Samples;Min_cycle;Max_cycle;Signal;HPM_P1;HPM_P2
2023/06/04 00:01:12;;;;;;;9.15;3.58;;;;;;;;;;6143602;23;20025;-49
2023/06/04 00:03:43;;;;;;;7.50;3.90;;;;;;;;;;6144028;23;20021;-45
2023/06/04 00:06:10;;;;;;;10.02;3.40;;;;;;;;;;6144834;23;20063;-58
2023/06/04 00:08:43;;;;;;;7.32;3.70;;;;;;;;;;6145538;23;20033;-60
2023/06/04 00:11:11;;;;;;;9.40;4.00;;;;;;;;;;6145754;23;20497;-60
2023/06/04 00:13:44;;;;;;;13.00;4.22;;;;;;;;;;6146912;23;20021;-60
2023/06/04 00:16:18;;;;;;;7.90;3.50;;;;;;;;;;6146696;23;20037;-60
2023/06/04 00:18:46;;;;;;;14.15;3.90;;;;;;;;;;6146386;23;20028;-60
2023/06/04 00:21:20;;;;;;;10.70;4.25;;;;;;;;;;6145839;23;20791;-65
2023/06/04 00:23:53;;;;;;;9.45;3.30;;;;;;;;;;6146320;23;20088;-66
2023/06/04 00:26:21;;;;;;;7.57;3.53;;;;;;;;;;6145722;23;20102;-66
2023/06/04 00:28:55;;;;;;;9.82;3.60;;;;;;;;;;6146204;23;20235;-66
2023/06/04 00:31:43;;;;;;;11.40;4.00;;;;;;;;;;6145976;23;20870;-65
2023/06/04 00:34:24;;;;;;;13.82;3.95;;;;;;;;;;6146669;23;20433;-59
2023/06/04 00:36:59;;;;;;;16.00;4.13;;;;;;;;;;6146081;23;20026;-59
2023/06/04 00:39:34;;;;;;;10.88;3.78;;;;;;;;;;6144203;23;20025;-59
2023/06/04 00:42:01;;;;;;;12.93;4.00;;;;;;;;;;6142203;23;20061;-59
2023/06/04 00:44:29;;;;;;;12.13;3.85;;;;;;;;;;6145189;23;20018;-60
2023/06/04 00:47:03;;;;;;;15.63;4.53;;;;;;;;;;6145032;23;20104;-59
2023/06/04 00:49:30;;;;;;;14.45;4.75;;;;;;;;;;6145715;23;20021;-63
2023/06/04 00:52:04;;;;;;;10.95;4.10;;;;;;;;;;6146372;23;20025;-65
2023/06/04 00:54:33;;;;;;;13.13;3.95;;;;;;;;;;6146218;23;20026;-64
2023/06/04 00:57:01;;;;;;;15.50;4.45;;;;;;;;;;6145038;23;20029;-65
2023/06/04 00:59:36;;;;;;;10.55;4.30;;;;;;;;;;6145215;23;20076;-59
2023/06/04 01:02:06;;;;;;;8.05;3.65;;;;;;;;;;6145744;23;20021;-59
2023/06/04 01:04:51;;;;;;;12.75;4.15;;;;;;;;;;6144702;23;20504;-55
2023/06/04 01:07:19;;;;;;;10.50;4.05;;;;;;;;;;6143347;23;20029;-55
2023/06/04 01:09:54;;;;;;;10.38;4.18;;;;;;;;;;6146363;23;20029;-55
2023/06/04 01:12:21;;;;;;;11.32;3.33;;;;;;;;;;6143696;23;20032;-53
2023/06/04 01:14:48;;;;;;;11.80;3.95;;;;;;;;;;6145515;23;20026;-52
2023/06/04 01:17:51;;;;;;;8.68;3.65;;;;;;;;;;6144333;23;20371;-51
2023/06/04 01:20:32;;;;;;;11.20;4.55;;;;;;;;;;6142619;23;20033;-65
2023/06/04 01:23:28;;;;;;;14.23;3.90;;;;;;;;;;6145165;23;20018;-65
2023/06/04 01:25:57;;;;;;;13.43;4.57;;;;;;;;;;6145707;23;20311;-64
2023/06/04 01:28:32;;;;;;;11.45;4.32;;;;;;;;;;6144972;23;20026;-51
2023/06/04 01:31:01;;;;;;;10.77;4.35;;;;;;;;;;6145880;23;20089;-59
2023/06/04 01:33:35;;;;;;;13.75;4.55;;;;;;;;;;6145103;23;20029;-50
2023/06/04 01:36:02;;;;;;;7.20;4.10;;;;;;;;;;6146386;23;20666;-54
2023/06/04 01:38:36;;;;;;;16.08;3.95;;;;;;;;;;6145059;23;20084;-50
2023/06/04 01:41:09;;;;;;;11.15;4.20;;;;;;;;;;6144176;23;20084;-48
2023/06/04 01:43:37;;;;;;;11.02;3.90;;;;;;;;;;6145397;23;20087;-51
2023/06/04 01:46:04;;;;;;;15.13;4.80;;;;;;;;;;6144900;23;20493;-48
2023/06/04 01:48:38;;;;;;;8.48;4.38;;;;;;;;;;6145003;23;20033;-45
2023/06/04 01:51:06;;;;;;;17.30;4.80;;;;;;;;;;6144470;23;20100;-47
2023/06/04 01:53:40;;;;;;;11.90;4.43;;;;;;;;;;6145764;23;20073;-48
2023/06/04 01:56:08;;;;;;;9.88;5.05;;;;;;;;;;6140246;23;20496;-46
2023/06/04 01:58:35;;;;;;;8.88;4.45;;;;;;;;;;6145395;23;20029;-54
2023/06/04 02:01:10;;;;;;;15.13;4.90;;;;;;;;;;6144245;23;20018;-59
2023/06/04 02:03:37;;;;;;;19.17;5.65;;;;;;;;;;6145959;23;20100;-59
2023/06/04 02:06:11;;;;;;;14.20;4.63;;;;;;;;;;6143297;23;20450;-58
2023/06/04 02:08:38;;;;;;;13.75;4.80;;;;;;;;;;6144898;23;20430;-58
2023/06/04 02:11:05;;;;;;;15.00;4.30;;;;;;;;;;6145896;23;20072;-58
2023/06/04 02:13:40;;;;;;;12.95;4.53;;;;;;;;;;6145115;23;20025;-60
2023/06/04 02:16:07;;;;;;;12.63;4.60;;;;;;;;;;6144795;23;20021;-47
2023/06/04 02:18:34;;;;;;;12.45;4.85;;;;;;;;;;6144757;23;20030;-50
2023/06/04 02:21:09;;;;;;;15.38;5.07;;;;;;;;;;6143734;23;20023;-50
2023/06/04 02:23:36;;;;;;;12.50;5.13;;;;;;;;;;6145060;23;20149;-46
2023/06/04 02:26:03;;;;;;;11.60;4.60;;;;;;;;;;6143753;23;20029;-50
2023/06/04 02:28:37;;;;;;;15.98;4.70;;;;;;;;;;6144802;23;20087;-54
2023/06/04 02:31:04;;;;;;;18.45;4.75;;;;;;;;;;6144136;23;20568;-53
2023/06/04 02:33:38;;;;;;;13.15;5.43;;;;;;;;;;6140582;23;20378;-54
2023/06/04 02:36:05;;;;;;;13.75;4.95;;;;;;;;;;6142470;23;20481;-54
2023/06/04 02:38:39;;;;;;;16.58;5.25;;;;;;;;;;6144708;23;20103;-54
2023/06/04 02:41:21;;;;;;;11.27;4.72;;;;;;;;;;6143836;23;20088;-50
2023/06/04 02:43:54;;;;;;;16.17;5.32;;;;;;;;;;6146448;23;20033;-59
2023/06/04 02:46:22;;;;;;;12.98;5.50;;;;;;;;;;6143701;23;20119;-59
2023/06/04 02:48:49;;;;;;;14.85;4.93;;;;;;;;;;6145574;23;20017;-60
2023/06/04 02:51:22;;;;;;;17.23;5.00;;;;;;;;;;6144584;23;20029;-60
2023/06/04 02:53:50;;;;;;;18.65;5.47;;;;;;;;;;6143709;23;20029;-64
2023/06/04 02:56:24;;;;;;;9.15;4.40;;;;;;;;;;6143352;23;20089;-50
2023/06/04 02:58:57;;;;;;;13.48;4.45;;;;;;;;;;6145970;23;20080;-64
2023/06/04 03:01:31;;;;;;;8.00;3.72;;;;;;;;;;6145072;23;20092;-65
2023/06/04 03:04:09;;;;;;;8.10;3.55;;;;;;;;;;6145970;23;20100;-65
2023/06/04 03:06:44;;;;;;;8.55;3.97;;;;;;;;;;6144308;23;20022;-65
2023/06/04 03:09:17;;;;;;;7.40;3.30;;;;;;;;;;6143945;23;20060;-66
2023/06/04 03:11:45;;;;;;;7.25;3.30;;;;;;;;;;6144127;23;20088;-56
2023/06/04 03:14:12;;;;;;;7.85;3.25;;;;;;;;;;6144879;23;20026;-55
2023/06/04 03:16:46;;;;;;;7.75;3.10;;;;;;;;;;6145043;23;20029;-52
2023/06/04 03:19:14;;;;;;;6.60;3.30;;;;;;;;;;6143858;23;20029;-56
2023/06/04 03:21:52;;;;;;;12.93;4.05;;;;;;;;;;6145543;23;20025;-48
2023/06/04 03:24:19;;;;;;;9.38;4.03;;;;;;;;;;6143635;23;20410;-51
2023/06/04 03:26:46;;;;;;;15.45;4.90;;;;;;;;;;6142598;23;20493;-47
2023/06/04 03:29:21;;;;;;;8.38;3.75;;;;;;;;;;6142939;23;20425;-48
2023/06/04 03:31:48;;;;;;;9.68;3.78;;;;;;;;;;6144832;23;20077;-45
2023/06/04 03:34:24;;;;;;;8.60;3.95;;;;;;;;;;6144967;23;20025;-50
2023/06/04 03:37:01;;;;;;;12.35;4.63;;;;;;;;;;6145758;23;20485;-48
2023/06/04 03:39:42;;;;;;;13.38;3.85;;;;;;;;;;6143746;23;20029;-47
2023/06/04 03:42:09;;;;;;;6.40;3.42;;;;;;;;;;6144145;23;20543;-66
2023/06/04 03:44:44;;;;;;;7.78;3.70;;;;;;;;;;6145296;23;20372;-65
2023/06/04 03:47:11;;;;;;;7.85;3.50;;;;;;;;;;6146273;23;20033;-64
2023/06/04 03:49:38;;;;;;;10.18;3.72;;;;;;;;;;6145917;23;20057;-65
2023/06/04 03:52:11;;;;;;;7.05;3.55;;;;;;;;;;6148082;23;20029;-51
2023/06/04 03:54:39;;;;;;;7.03;3.65;;;;;;;;;;6146125;23;20358;-50
2023/06/04 03:57:12;;;;;;;6.70;3.58;;;;;;;;;;6145331;23;20025;-53
2023/06/04 03:59:40;;;;;;;11.98;4.05;;;;;;;;;;6146801;23;20029;-49
2023/06/04 04:02:07;;;;;;;6.03;3.33;;;;;;;;;;6147420;23;20096;-51
2023/06/04 04:04:41;;;;;;;5.82;3.40;;;;;;;;;;6145624;23;20041;-52
2023/06/04 04:07:08;;;;;;;6.20;2.97;;;;;;;;;;6142728;23;20084;-50
2023/06/04 04:09:42;;;;;;;6.28;2.58;;;;;;;;;;6145809;23;20025;-53
2023/06/04 04:12:09;;;;;;;6.63;2.80;;;;;;;;;;6147169;23;20021;-55
2023/06/04 04:14:36;;;;;;;5.72;2.97;;;;;;;;;;6145759;23;20068;-53
2023/06/04 04:17:10;;;;;;;5.32;2.92;;;;;;;;;;6145523;23;20076;-55
2023/06/04 04:19:38;;;;;;;9.23;3.00;;;;;;;;;;6146497;23;20104;-52
2023/06/04 04:22:12;;;;;;;5.13;3.00;;;;;;;;;;6146564;23;20541;-52
2023/06/04 04:24:40;;;;;;;6.53;2.95;;;;;;;;;;6142916;23;20025;-57
2023/06/04 04:27:15;;;;;;;8.50;2.60;;;;;;;;;;6143136;23;20021;-53
2023/06/04 04:29:43;;;;;;;6.22;3.17;;;;;;;;;;6140699;23;20026;-54
2023/06/04 04:32:10;;;;;;;;;;;;;;;;;;6145536;23;20026;-47
2023/06/04 04:34:54;;;;;;;11.60;3.35;;;;;;;;;;6146090;23;19984;-50
2023/06/04 04:37:29;;;;;;;8.55;3.10;;;;;;;;;;6142306;23;20441;-44
2023/06/04 04:40:04;;;;;;;10.98;3.13;;;;;;;;;;6146307;23;20033;-60
2023/06/04 04:42:31;;;;;;;9.88;3.17;;;;;;;;;;6147026;23;20057;-46
2023/06/04 04:44:58;;;;;;;7.57;3.15;;;;;;;;;;6145572;23;20100;-47
2023/06/04 04:47:32;;;;;;;9.63;3.45;;;;;;;;;;6145413;23;20030;-48
2023/06/04 04:50:00;;;;;;;8.65;3.55;;;;;;;;;;6142011;23;20035;-47
2023/06/04 04:52:33;;;;;;;12.00;4.63;;;;;;;;;;6140580;23;20025;-47
2023/06/04 04:55:01;;;;;;;8.95;3.78;;;;;;;;;;6144128;23;20064;-46
2023/06/04 04:57:28;;;;;;;10.70;3.95;;;;;;;;;;6142451;23;20028;-50
2023/06/04 05:00:05;;;;;;;11.60;4.18;;;;;;;;;;6145606;23;20022;-52
2023/06/04 05:02:32;;;;;;;9.57;3.80;;;;;;;;;;6146679;23;20025;-49
2023/06/04 05:05:06;;;;;;;15.95;5.18;;;;;;;;;;6147242;23;20025;-52
2023/06/04 05:07:33;;;;;;;10.35;4.70;;;;;;;;;;6140877;23;20057;-48
2023/06/04 05:10:00;;;;;;;11.63;4.85;;;;;;;;;;6146797;23;20527;-65
2023/06/04 05:12:34;;;;;;;11.80;4.60;;;;;;;;;;6145925;23;20091;-66
2023/06/04 05:15:03;;;;;;;10.30;4.63;;;;;;;;;;6144109;23;20021;-66
2023/06/04 05:17:40;;;;;;;11.95;4.43;;;;;;;;;;6144620;23;20029;-65
2023/06/04 05:20:11;;;;;;;12.25;4.45;;;;;;;;;;6146167;23;20112;-65
2023/06/04 05:22:48;;;;;;;16.35;4.25;;;;;;;;;;6145773;23;20080;-65
2023/06/04 05:25:15;;;;;;;18.17;4.88;;;;;;;;;;6146340;23;20025;-55
2023/06/04 05:27:43;;;;;;;20.33;5.50;;;;;;;;;;6141365;23;20034;-56
2023/06/04 05:30:16;;;;;;;15.20;4.47;;;;;;;;;;6143212;23;20033;-54
2023/06/04 05:32:44;;;;;;;15.07;5.43;;;;;;;;;;6145775;23;20029;-55
2023/06/04 05:35:18;;;;;;;19.98;5.13;;;;;;;;;;6143930;23;20057;-54
2023/06/04 05:38:00;;;;;;;16.90;6.10;;;;;;;;;;6141138;23;20084;-54
2023/06/04 05:40:34;;;;;;;18.67;5.72;;;;;;;;;;6143304;23;20053;-53
2023/06/04 05:43:01;;;;;;;20.50;5.55;;;;;;;;;;6145624;23;20025;-56
2023/06/04 05:45:28;;;;;;;21.45;5.60;;;;;;;;;;6144712;23;20084;-55
2023/06/04 05:48:02;;;;;;;20.42;5.47;;;;;;;;;;6145485;23;20417;-54
2023/06/04 05:50:30;;;;;;;17.40;5.10;;;;;;;;;;6144671;23;20026;-55
2023/06/04 05:52:57;;;;;;;22.30;5.45;;;;;;;;;;6145157;23;20369;-64
2023/06/04 05:55:31;;;;;;;16.15;4.90;;;;;;;;;;6144262;23;20029;-64
2023/06/04 05:57:58;;;;;;;18.30;5.10;;;;;;;;;;6144970;23;20029;-64
2023/06/04 06:00:25;;;;;;;15.98;5.15;;;;;;;;;;6143619;23;20489;-65
2023/06/04 06:03:01;;;;;;;14.48;4.38;;;;;;;;;;6145377;23;20088;-49
2023/06/04 06:05:28;;;;;;;18.33;4.22;;;;;;;;;;6144515;23;20084;-53
2023/06/04 06:08:03;;;;;;;17.10;4.22;;;;;;;;;;6144249;23;20084;-52
2023/06/04 06:10:30;;;;;;;18.10;4.55;;;;;;;;;;6145043;23;20025;-49
2023/06/04 06:12:57;;;;;;;11.10;3.95;;;;;;;;;;6144478;23;20034;-49
2023/06/04 06:15:32;;;;;;;18.08;4.85;;;;;;;;;;6145044;23;20021;-49
2023/06/04 06:18:00;;;;;;;15.18;4.38;;;;;;;;;;6144261;23;20063;-54
2023/06/04 06:20:34;;;;;;;11.70;4.07;;;;;;;;;;6144635;23;20029;-55
2023/06/04 06:23:07;;;;;;;14.55;4.20;;;;;;;;;;6144960;23;20048;-59
2023/06/04 06:25:41;;;;;;;12.90;3.97;;;;;;;;;;6143234;23;20025;-59
2023/06/04 06:28:08;;;;;;;16.77;4.22;;;;;;;;;;6144049;23;20134;-59
2023/06/04 06:30:35;;;;;;;12.30;3.80;;;;;;;;;;6143579;23;20028;-58
2023/06/04 06:33:09;;;;;;;15.07;4.20;;;;;;;;;;6143912;23;20493;-53
2023/06/04 06:35:36;;;;;;;15.82;4.03;;;;;;;;;;6143999;23;20024;-60
2023/06/04 06:38:22;;;;;;;14.05;3.75;;;;;;;;;;6073097;23;20636;-58
2023/06/04 06:40:56;;;;;;;11.15;3.53;;;;;;;;;;6114849;23;20097;-59
2023/06/04 06:43:31;;;;;;;12.27;3.67;;;;;;;;;;6115742;23;20026;-57
2023/06/04 06:45:59;;;;;;;12.90;4.22;;;;;;;;;;6108876;23;20093;-60
2023/06/04 06:48:26;;;;;;;12.50;3.92;;;;;;;;;;6114411;23;20030;-60
2023/06/04 06:51:00;;;;;;;16.90;4.47;;;;;;;;;;6110496;23;20080;-63
2023/06/04 06:53:27;;;;;;;;;;;;;;;;;;6114903;23;20474;-59
2023/06/04 06:56:01;;;;;;;14.65;4.30;;;;;;;;;;6110285;23;19917;-59
2023/06/04 06:58:28;;;;;;;11.52;3.85;;;;;;;;;;6111156;23;20088;-59
2023/06/04 07:00:56;;;;;;;9.95;3.78;;;;;;;;;;6107127;23;20026;-59
2023/06/04 07:03:31;;;;;;;10.07;3.40;;;;;;;;;;6112146;23;20022;-59
2023/06/04 07:05:58;;;;;;;10.80;3.38;;;;;;;;;;6111665;23;20029;-61
2023/06/04 07:08:32;;;;;;;14.77;3.78;;;;;;;;;;6115455;23;20029;-50
2023/06/04 07:10:59;;;;;;;15.70;3.67;;;;;;;;;;6113413;23;20022;-53
2023/06/04 07:13:35;;;;;;;10.05;3.13;;;;;;;;;;6116011;23;20073;-57
2023/06/04 07:16:08;;;;;;;7.97;2.90;;;;;;;;;;6111770;23;20026;-53
2023/06/04 07:18:36;;;;;;;9.50;3.10;;;;;;;;;;6116013;23;20024;-54
2023/06/04 07:21:10;;;;;;;7.70;3.28;;;;;;;;;;6116156;23;20429;-54
2023/06/04 07:23:37;;;;;;;12.55;2.90;;;;;;;;;;6117715;23;20025;-54
2023/06/04 07:26:04;;;;;;;10.93;2.78;;;;;;;;;;6114187;23;20032;-55
2023/06/04 07:28:45;;;;;;;7.93;2.78;;;;;;;;;;6118325;23;20033;-55
2023/06/04 07:31:15;;;;;;;8.95;2.90;;;;;;;;;;6115175;23;20644;-56
2023/06/04 07:33:49;;;;;;;11.93;3.00;;;;;;;;;;6116117;23;20028;-56
2023/06/04 07:36:16;;;;;;;6.70;2.50;;;;;;;;;;6117382;23;20025;-56
2023/06/04 07:38:43;;;;;;;8.68;2.42;;;;;;;;;;6113372;23;20029;-56
2023/06/04 07:41:18;;;;;;;10.45;2.65;;;;;;;;;;6090533;23;20914;-54
2023/06/04 07:43:45;;;;;;;5.18;2.03;;;;;;;;;;6112556;23;20089;-55
2023/06/04 07:46:12;;;;;;;6.18;2.28;;;;;;;;;;6110755;23;20029;-51
2023/06/04 07:48:46;;;;;;;6.65;2.10;;;;;;;;;;6117458;23;20225;-55
2023/06/04 07:51:13;;;;;;;5.60;2.05;;;;;;;;;;6112543;23;20100;-54
2023/06/04 07:53:48;;;;;;;4.78;1.70;;;;;;;;;;6115135;23;20029;-54
2023/06/04 07:56:15;;;;;;;3.95;1.77;;;;;;;;;;6117338;23;20029;-55
2023/06/04 07:58:42;;;;;;;3.85;1.88;;;;;;;;;;6111483;23;20085;-55
2023/06/04 08:01:16;;;;;;;3.90;1.83;;;;;;;;;;6115895;23;20026;-55
2023/06/04 08:03:43;;;;;;;;;;;;;;;;;;6114114;23;20109;-57
2023/06/04 08:06:18;;;;;;;5.72;1.85;;;;;;;;;;6112422;23;19936;-57
2023/06/04 08:08:48;;;;;;;4.88;2.05;;;;;;;;;;6111955;23;20421;-57
2023/06/04 08:11:16;;;;;;;3.38;2.00;;;;;;;;;;6112449;23;20030;-58
2023/06/04 08:13:50;;;;;;;3.53;1.80;;;;;;;;;;6116205;23;20026;-51
2023/06/04 08:16:17;;;;;;;4.22;1.80;;;;;;;;;;6116722;23;20081;-50
2023/06/04 08:18:51;;;;;;;3.65;1.80;;;;;;;;;;6116528;23;20030;-51
2023/06/04 08:21:25;;;;;;;3.35;1.90;;;;;;;;;;6115792;23;20026;-53
2023/06/04 08:23:59;;;;;;;3.45;1.63;;;;;;;;;;6115643;23;20092;-51
2023/06/04 08:26:27;;;;;;;4.90;1.95;;;;;;;;;;6116241;23;20022;-53
2023/06/04 08:28:54;;;;;;;;;;;;;;;;;;6114822;23;20026;-55
2023/06/04 08:31:28;;;;;;;5.45;1.98;;;;;;;;;;6118520;23;19924;-51
2023/06/04 08:33:55;;;;;;;8.45;2.20;;;;;;;;;;6113378;23;20025;-50
2023/06/04 08:36:29;;;;;;;3.65;2.13;;;;;;;;;;6114744;23;20029;-50
2023/06/04 08:39:10;;;;;;;3.08;1.88;;;;;;;;;;6115104;23;20030;-48
2023/06/04 08:41:44;;;;;;;3.83;1.90;;;;;;;;;;6114893;23;20758;-52
2023/06/04 08:44:19;;;;;;;6.35;1.60;;;;;;;;;;6116397;23;20518;-57
2023/06/04 08:46:47;;;;;;;2.65;1.70;;;;;;;;;;6116269;23;20022;-48
2023/06/04 08:49:16;;;;;;;6.32;1.60;;;;;;;;;;6116308;23;20029;-51
2023/06/04 08:51:50;;;;;;;3.72;1.95;;;;;;;;;;6113185;23;20081;-53
2023/06/04 08:54:17;;;;;;;3.30;1.90;;;;;;;;;;6114460;23;20022;-52
2023/06/04 08:56:46;;;;;;;5.53;1.90;;;;;;;;;;6114363;23;20096;-49
2023/06/04 08:59:20;;;;;;;4.32;1.90;;;;;;;;;;6116286;23;20093;-51
2023/06/04 09:01:47;;;;;;;2.80;1.70;;;;;;;;;;6112045;23;20029;-51
2023/06/04 09:04:21;;;;;;;2.33;1.70;;;;;;;;;;6113714;23;20026;-54
2023/06/04 09:06:48;;;;;;;4.93;1.85;;;;;;;;;;6114033;23;20504;-54
2023/06/04 09:09:17;;;;;;;;;;;;;;;;;;6116822;23;20026;-52
2023/06/04 09:11:56;;;;;;;2.25;1.73;;;;;;;;;;6115143;23;19920;-52
2023/06/04 09:14:24;;;;;;;4.50;1.50;;;;;;;;;;6116091;23;20017;-58
2023/06/04 09:16:58;;;;;;;3.15;1.60;;;;;;;;;;6114762;23;20026;-57
2023/06/04 09:19:26;;;;;;;1.58;1.27;;;;;;;;;;6089780;23;20022;-56
2023/06/04 09:21:57;;;;;;;2.25;1.20;;;;;;;;;;6115570;23;20029;-59
2023/06/04 09:24:41;;;;;;;1.35;1.25;;;;;;;;;;6116297;23;20359;-56
2023/06/04 09:27:12;;;;;;;2.33;1.55;;;;;;;;;;6112023;23;20450;-58
2023/06/04 09:29:51;;;;;;;2.45;1.45;;;;;;;;;;6115770;23;20026;-50
2023/06/04 09:32:28;;;;;;;1.58;1.17;;;;;;;;;;6114484;23;20034;-50
2023/06/04 09:35:22;;;;;;;2.97;1.60;;;;;;;;;;6116818;23;20041;-51
2023/06/04 09:37:57;;;;;;;1.40;1.00;;;;;;;;;;6113824;23;20144;-51
2023/06/04 09:40:43;;;;;;;2.83;1.10;;;;;;;;;;6114435;23;20025;-53
2023/06/04 09:43:11;;;;;;;8.65;1.30;;;;;;;;;;6115138;23;20512;-58
2023/06/04 09:45:46;;;;;;;3.70;1.20;;;;;;;;;;6116653;23;20030;-58
2023/06/04 09:48:19;;;;;;;3.25;1.33;;;;;;;;;;6116554;23;20026;-58
2023/06/04 09:50:52;;;;;;;2.03;1.20;;;;;;;;;;6116350;23;20430;-58
2023/06/04 09:53:28;;;;;;;1.38;1.20;;;;;;;;;;6108227;23;20032;-59
2023/06/04 09:55:58;;;;;;;6.93;1.33;;;;;;;;;;6113726;23;20029;-58
2023/06/04 09:58:33;;;;;;;3.28;0.95;;;;;;;;;;6115400;23;20029;-63
2023/06/04 10:01:01;;;;;;;3.75;1.40;;;;;;;;;;6115713;23;20030;-54
2023/06/04 10:03:32;;;;;;;2.50;1.45;;;;;;;;;;6113059;23;20556;-46
2023/06/04 10:06:06;;;;;;;6.32;1.17;;;;;;;;;;6115125;23;20069;-49
2023/06/04 10:08:42;;;;;;;2.28;1.13;;;;;;;;;;6116194;23;20022;-48
2023/06/04 10:11:11;;;;;;;1.00;0.90;;;;;;;;;;6114036;23;20091;-53
2023/06/04 10:13:45;;;;;;;1.42;1.08;;;;;;;;;;6113690;23;20077;-49
2023/06/04 10:16:13;;;;;;;1.25;1.15;;;;;;;;;;6105146;23;20030;-56
2023/06/04 10:19:00;;;;;;;1.15;1.05;;;;;;;;;;6116981;23;20482;-55
2023/06/04 10:21:37;;;;;;;1.27;1.17;;;;;;;;;;6114450;23;20545;-55
2023/06/04 10:24:11;;;;;;;1.42;1.05;;;;;;;;;;6114928;23;20033;-57
2023/06/04 10:26:39;;;;;;;1.75;1.25;;;;;;;;;;6115772;23;20442;-57
2023/06/04 10:29:13;;;;;;;5.95;1.27;;;;;;;;;;6116019;23;20647;-55
2023/06/04 10:31:41;;;;;;;2.30;1.35;;;;;;;;;;6115545;23;20359;-56
2023/06/04 10:34:08;;;;;;;1.88;1.25;;;;;;;;;;6116120;23;20025;-51
2023/06/04 10:36:46;;;;;;;1.15;0.85;;;;;;;;;;6112855;23;20021;-50
2023/06/04 10:39:33;;;;;;;4.13;1.30;;;;;;;;;;6110940;23;20395;-64
2023/06/04 10:42:05;;;;;;;1.70;1.05;;;;;;;;;;6111797;23;20037;-64
2023/06/04 10:44:49;;;;;;;2.92;1.40;;;;;;;;;;6115347;23;20026;-64
2023/06/04 10:47:26;;;;;;;2.08;1.23;;;;;;;;;;6114575;23;20084;-64
2023/06/04 10:50:11;;;;;;;1.35;1.02;;;;;;;;;;6090642;23;20049;-64
2023/06/04 10:52:39;;;;;;;;;;;;;;;;;;6113033;23;20025;-64
2023/06/04 10:55:12;;;;;;;1.67;1.20;;;;;;;;;;6116015;23;19955;-63
2023/06/04 10:57:40;;;;;;;1.20;1.10;;;;;;;;;;6112516;23;20060;-52
2023/06/04 11:00:16;;;;;;;3.67;1.10;;;;;;;;;;6112475;23;20497;-56
2023/06/04 11:02:51;;;;;;;2.17;1.20;;;;;;;;;;6112909;23;20115;-52
2023/06/04 11:05:42;;;;;;;1.15;1.00;;;;;;;;;;6091872;23;20026;-55
2023/06/04 11:08:10;;;;;;;2.92;1.30;;;;;;;;;;6111518;23;20565;-54
2023/06/04 11:10:48;;;;;;;1.67;1.00;;;;;;;;;;6108119;23;20992;-55
2023/06/04 11:13:15;;;;;;;1.77;1.15;;;;;;;;;;6116094;23;20022;-51
2023/06/04 11:15:43;;;;;;;1.50;1.17;;;;;;;;;;6111328;23;20025;-49
2023/06/04 11:18:19;;;;;;;1.08;0.98;;;;;;;;;;6115542;23;20036;-49
2023/06/04 11:20:59;;;;;;;3.50;0.98;;;;;;;;;;6116144;23;20033;-48
2023/06/04 11:23:27;;;;;;;1.85;1.20;;;;;;;;;;6115239;23;20022;-57
2023/06/04 11:26:01;;;;;;;1.38;1.02;;;;;;;;;;6116002;23;20033;-57
2023/06/04 11:28:28;;;;;;;1.45;0.95;;;;;;;;;;6116814;23;20029;-55
2023/06/04 11:30:56;;;;;;;0.70;0.70;;;;;;;;;;6115545;23;20054;-56
2023/06/04 11:33:31;;;;;;;1.27;0.88;;;;;;;;;;6114410;23;20422;-55
2023/06/04 11:35:58;;;;;;;1.77;0.90;;;;;;;;;;6116228;23;20516;-57
2023/06/04 11:38:45;;;;;;;1.00;0.82;;;;;;;;;;6116252;23;20022;-57
2023/06/04 11:41:20;;;;;;;0.85;0.73;;;;;;;;;;6116560;23;20077;-56
2023/06/04 11:43:54;;;;;;;3.17;0.73;;;;;;;;;;6115659;23;20026;-57
2023/06/04 11:46:21;;;;;;;1.48;0.90;;;;;;;;;;6115464;23;20046;-55
2023/06/04 11:48:55;;;;;;;2.20;0.82;;;;;;;;;;6116065;23;20029;-56
2023/06/04 11:51:22;;;;;;;0.60;0.60;;;;;;;;;;6116256;23;20068;-52
2023/06/04 11:53:50;;;;;;;0.80;0.73;;;;;;;;;;6114898;23;20445;-53
2023/06/04 11:56:28;;;;;;;3.97;1.08;;;;;;;;;;6115764;23;20636;-48
2023/06/04 11:58:55;;;;;;;2.70;0.80;;;;;;;;;;6116127;23;20030;-52
2023/06/04 12:01:23;;;;;;;2.92;1.10;;;;;;;;;;6114978;23;20061;-54
2023/06/04 12:03:57;;;;;;;1.27;1.10;;;;;;;;;;6115914;23;20030;-54
2023/06/04 12:06:24;;;;;;;;;;;;;;;;;;6117765;23;20088;-53
2023/06/04 12:08:58;;;;;;;1.63;1.27;;;;;;;;;;6118604;23;19920;-65
2023/06/04 12:11:32;;;;;;;1.50;0.90;;;;;;;;;;6118227;23;20092;-66
2023/06/04 12:14:07;;;;;;;0.80;0.77;;;;;;;;;;6116710;23;20033;-65
2023/06/04 12:16:34;;;;;;;1.00;0.90;;;;;;;;;;6117190;23;20025;-64
2023/06/04 12:19:10;;;;;;;1.85;1.05;;;;;;;;;;6116006;23;20058;-65
2023/06/04 12:21:37;;;;;;;1.50;1.17;;;;;;;;;;6116847;23;20026;-58
2023/06/04 12:24:08;;;;;;;1.85;1.25;;;;;;;;;;6112039;23;20821;-59
2023/06/04 12:26:43;;;;;;;1.58;1.25;;;;;;;;;;6117267;23;20029;-59
2023/06/04 12:29:15;;;;;;;1.35;1.05;;;;;;;;;;6113541;23;20034;-59
2023/06/04 12:31:49;;;;;;;1.13;1.02;;;;;;;;;;6116899;23;20030;-59
2023/06/04 12:34:17;;;;;;;1.00;0.90;;;;;;;;;;6114727;23;20033;-59
2023/06/04 12:36:45;;;;;;;2.20;1.33;;;;;;;;;;6117690;23;20022;-53
2023/06/04 12:39:31;;;;;;;1.67;0.85;;;;;;;;;;6116214;23;20084;-65
2023/06/04 12:42:06;;;;;;;3.17;1.00;;;;;;;;;;6116633;23;20103;-55
2023/06/04 12:44:40;;;;;;;0.93;0.90;;;;;;;;;;6116769;23;20073;-56
2023/06/04 12:47:14;;;;;;;5.70;1.25;;;;;;;;;;6115901;23;20088;-53
2023/06/04 12:49:42;;;;;;;1.60;0.77;;;;;;;;;;6116534;23;20077;-55
2023/06/04 12:52:17;;;;;;;1.48;1.00;;;;;;;;;;6115087;23;20084;-54
2023/06/04 12:54:44;;;;;;;1.40;0.90;;;;;;;;;;6113929;23;20512;-65
2023/06/04 12:57:12;;;;;;;1.20;1.10;;;;;;;;;;6113777;23;20022;-50
2023/06/04 12:59:46;;;;;;;2.75;1.10;;;;;;;;;;6109047;23;20026;-57
2023/06/04 13:02:13;;;;;;;1.23;1.10;;;;;;;;;;6112345;23;20033;-57
2023/06/04 13:04:49;;;;;;;1.20;1.08;;;;;;;;;;6112673;23;20029;-57
2023/06/04 13:07:16;;;;;;;0.77;0.77;;;;;;;;;;6103893;23;20805;-57
2023/06/04 13:09:43;;;;;;;3.80;1.08;;;;;;;;;;6112014;23;20061;-57
2023/06/04 13:12:18;;;;;;;1.42;1.00;;;;;;;;;;6108703;23;20546;-55
2023/06/04 13:14:45;;;;;;;1.38;0.90;;;;;;;;;;6113499;23;20029;-59
2023/06/04 13:17:13;;;;;;;3.92;1.40;;;;;;;;;;6113169;23;20537;-56
2023/06/04 13:19:49;;;;;;;1.33;1.17;;;;;;;;;;6115021;23;20116;-56
2023/06/04 13:22:17;;;;;;;3.15;1.10;;;;;;;;;;6088961;23;20026;-57
2023/06/04 13:24:51;;;;;;;2.13;1.17;;;;;;;;;;6113881;23;20377;-57
2023/06/04 13:27:18;;;;;;;2.78;1.13;;;;;;;;;;6114255;23;20565;-55
2023/06/04 13:29:46;;;;;;;2.55;0.98;;;;;;;;;;6114068;23;20026;-58
2023/06/04 13:32:20;;;;;;;1.25;1.00;;;;;;;;;;6115901;23;20565;-56
2023/06/04 13:34:47;;;;;;;;;;;;;;;;;;6115268;23;20110;-62
2023/06/04 13:37:21;;;;;;;1.48;1.10;;;;;;;;;;6110762;23;19916;-62
2023/06/04 13:39:48;;;;;;;;;;;;;;;;;;6111835;23;20029;-62
2023/06/04 13:42:21;;;;;;;1.33;1.05;;;;;;;;;;6114571;23;19956;-62
2023/06/04 13:44:55;;;;;;;1.50;1.10;;;;;;;;;;6117132;23;20076;-62
2023/06/04 13:47:22;;;;;;;0.70;0.70;;;;;;;;;;6116025;23;20625;-62
2023/06/04 13:49:56;;;;;;;0.93;0.93;;;;;;;;;;6117844;23;20029;-54
2023/06/04 13:52:23;;;;;;;1.15;1.00;;;;;;;;;;6113848;23;20033;-49
2023/06/04 13:54:51;;;;;;;1.00;1.00;;;;;;;;;;6116452;23;20728;-65
2023/06/04 13:57:25;;;;;;;1.15;1.00;;;;;;;;;;6117631;23;20317;-64
2023/06/04 13:59:53;;;;;;;4.00;1.35;;;;;;;;;;6090058;23;20097;-64
2023/06/04 14:02:27;;;;;;;2.42;1.30;;;;;;;;;;6116201;23;20026;-64
2023/06/04 14:04:54;;;;;;;0.90;0.90;;;;;;;;;;6116986;23;20050;-65
2023/06/04 14:07:22;;;;;;;;;;;;;;;;;;6116627;23;20033;-65
2023/06/04 14:09:56;;;;;;;1.65;1.25;;;;;;;;;;6117936;23;19921;-55
2023/06/04 14:12:23;;;;;;;1.45;1.15;;;;;;;;;;6115316;23;20022;-53
2023/06/04 14:14:58;;;;;;;1.88;1.13;;;;;;;;;;6116486;23;20022;-54
2023/06/04 14:17:25;;;;;;;1.20;1.00;;;;;;;;;;6113526;23;20030;-56
2023/06/04 14:19:59;;;;;;;1.52;1.00;;;;;;;;;;6115827;23;20026;-53
2023/06/04 14:22:27;;;;;;;1.33;1.10;;;;;;;;;;6116893;23;20390;-53
2023/06/04 14:24:54;;;;;;;1.55;1.08;;;;;;;;;;6116660;23;20609;-53
2023/06/04 14:27:28;;;;;;;0.98;0.98;;;;;;;;;;6114892;23;20089;-50
2023/06/04 14:29:55;;;;;;;;;;;;;;;;;;6114850;23;20501;-48
2023/06/04 14:32:22;;;;;;;4.05;1.08;;;;;;;;;;6113495;23;20336;-49
2023/06/04 14:34:57;;;;;;;1.20;0.95;;;;;;;;;;6115095;23;20075;-55
2023/06/04 14:37:25;;;;;;;1.95;1.10;;;;;;;;;;6114408;23;20489;-56
2023/06/04 14:39:52;;;;;;;5.22;1.63;;;;;;;;;;6114829;23;20093;-56
2023/06/04 14:42:32;;;;;;;11.52;1.73;;;;;;;;;;6114599;23;20030;-57
2023/06/04 14:45:07;;;;;;;1.17;0.82;;;;;;;;;;6114858;23;20022;-56
2023/06/04 14:47:41;;;;;;;1.33;1.05;;;;;;;;;;6114577;23;20085;-50
2023/06/04 14:50:08;;;;;;;;;;;;;;;;;;6114887;23;20474;-55
2023/06/04 14:52:42;;;;;;;1.85;1.30;;;;;;;;;;6114113;23;19975;-54
2023/06/04 14:55:09;;;;;;;1.73;1.30;;;;;;;;;;6112624;23;20818;-56
2023/06/04 14:57:36;;;;;;;1.58;1.10;;;;;;;;;;6114911;23;20026;-53
2023/06/04 15:00:11;;;;;;;1.75;1.00;;;;;;;;;;6115454;23;20085;-56
2023/06/04 15:02:38;;;;;;;1.67;1.13;;;;;;;;;;6116459;23;20032;-56
2023/06/04 15:05:06;;;;;;;;;;;;;;;;;;6115572;23;20377;-57
2023/06/04 15:07:40;;;;;;;1.20;1.10;;;;;;;;;;6114527;23;19972;-54
2023/06/04 15:10:07;;;;;;;;;;;;;;;;;;6115840;23;20026;-55